SWA1031 KDEN-KOMA
Flight info
| Callsign | SWA1031 |
|---|---|
| Flight time | N/A |
| Altitude | 37000 |
| Route | EEONS8 WYNDM HCT GRI HOWRY3 |
| Aircraft | B737/M-SADE2E3GIJ4RWZ/LB1D1 |
Departure
| Time | 2026-05-06 02:18 |
|---|---|
| Airport | Denver International Airport (KDEN) |
Arrival
| Time | N/A |
|---|---|
| Airport | Eppley Airfield (KOMA) |
| Time | Latitude | Longitude | Altitude | Speed | Heading |
|---|---|---|---|---|---|
| 2026-05-06 01:54 | 39.86359 | -104.67756 | 5365 ft | 0 kts | 180° |
| 2026-05-06 02:04 | 39.86361 | -104.67756 | 5365 ft | 1 kts | 180° |
| 2026-05-06 02:04 | 39.86378 | -104.67756 | 5362 ft | 3 kts | 180° |
| 2026-05-06 02:05 | 39.86398 | -104.67755 | 5363 ft | 3 kts | 180° |
| 2026-05-06 02:05 | 39.86419 | -104.67755 | 5364 ft | 3 kts | 180° |
| 2026-05-06 02:05 | 39.86427 | -104.67755 | 5364 ft | 8 kts | 180° |
| 2026-05-06 02:10 | 39.86423 | -104.67753 | 5363 ft | 1 kts | 155° |
| 2026-05-06 02:10 | 39.86420 | -104.67739 | 5364 ft | 3 kts | 101° |
| 2026-05-06 02:11 | 39.86418 | -104.67693 | 5365 ft | 7 kts | 91° |
| 2026-05-06 02:11 | 39.86418 | -104.67610 | 5365 ft | 11 kts | 90° |
| 2026-05-06 02:11 | 39.86418 | -104.67493 | 5365 ft | 14 kts | 90° |
| 2026-05-06 02:11 | 39.86417 | -104.67365 | 5365 ft | 14 kts | 90° |
| 2026-05-06 02:12 | 39.86416 | -104.67241 | 5365 ft | 15 kts | 90° |
| 2026-05-06 02:12 | 39.86415 | -104.67076 | 5365 ft | 19 kts | 90° |
| 2026-05-06 02:12 | 39.86414 | -104.66905 | 5365 ft | 19 kts | 90° |
| 2026-05-06 02:12 | 39.86412 | -104.66740 | 5365 ft | 18 kts | 90° |
| 2026-05-06 02:13 | 39.86428 | -104.66586 | 5364 ft | 17 kts | 41° |
| 2026-05-06 02:13 | 39.86503 | -104.66485 | 5365 ft | 17 kts | 82° |
| 2026-05-06 02:13 | 39.86521 | -104.66341 | 5365 ft | 16 kts | 77° |
| 2026-05-06 02:13 | 39.86545 | -104.66223 | 5364 ft | 15 kts | 14° |
| 2026-05-06 02:14 | 39.86655 | -104.66221 | 5364 ft | 18 kts | 0° |
| 2026-05-06 02:14 | 39.86804 | -104.66219 | 5363 ft | 24 kts | 0° |
| 2026-05-06 02:14 | 39.86963 | -104.66218 | 5365 ft | 23 kts | 0° |
| 2026-05-06 02:14 | 39.87118 | -104.66216 | 5363 ft | 22 kts | 0° |
| 2026-05-06 02:15 | 39.87269 | -104.66215 | 5365 ft | 21 kts | 0° |
| 2026-05-06 02:15 | 39.87415 | -104.66212 | 5363 ft | 21 kts | 1° |
| 2026-05-06 02:15 | 39.87557 | -104.66210 | 5364 ft | 20 kts | 0° |
| 2026-05-06 02:15 | 39.87655 | -104.66208 | 5364 ft | 10 kts | 1° |
| 2026-05-06 02:16 | 39.87722 | -104.66201 | 5363 ft | 10 kts | 12° |
| 2026-05-06 02:16 | 39.87759 | -104.66141 | 5365 ft | 9 kts | 89° |
| 2026-05-06 02:16 | 39.87759 | -104.66129 | 5365 ft | 0 kts | 90° |
| 2026-05-06 02:17 | 39.87759 | -104.66121 | 5365 ft | 7 kts | 90° |
| 2026-05-06 02:18 | 39.87757 | -104.65734 | 5365 ft | 81 kts | 90° |
| 2026-05-06 02:18 | 39.87752 | -104.64702 | 5364 ft | 144 kts | 90° |
| 2026-05-06 02:18 | 39.87741 | -104.63198 | 5643 ft | 174 kts | 89° |
| 2026-05-06 02:18 | 39.87731 | -104.61706 | 6883 ft | 159 kts | 90° |
| 2026-05-06 02:19 | 39.87718 | -104.60239 | 7521 ft | 173 kts | 91° |
| 2026-05-06 02:19 | 39.87703 | -104.58525 | 7816 ft | 204 kts | 89° |
| 2026-05-06 02:19 | 39.88007 | -104.56593 | 8073 ft | 232 kts | 73° |
| 2026-05-06 02:19 | 39.88509 | -104.54482 | 8478 ft | 251 kts | 74° |
| 2026-05-06 02:20 | 39.89601 | -104.49799 | 9643 ft | 285 kts | 75° |
| 2026-05-06 02:20 | 39.90173 | -104.47309 | 9964 ft | 287 kts | 75° |
| 2026-05-06 02:20 | 39.90748 | -104.44781 | 9977 ft | 293 kts | 75° |
| 2026-05-06 02:21 | 39.91325 | -104.42232 | 9985 ft | 291 kts | 75° |
| 2026-05-06 02:21 | 39.91894 | -104.39710 | 9981 ft | 290 kts | 75° |
| 2026-05-06 02:21 | 39.92461 | -104.37137 | 10087 ft | 306 kts | 75° |
| 2026-05-06 02:21 | 39.93054 | -104.34424 | 10608 ft | 323 kts | 75° |
| 2026-05-06 02:22 | 39.93677 | -104.31567 | 11317 ft | 332 kts | 75° |
| 2026-05-06 02:22 | 39.94315 | -104.28652 | 11793 ft | 336 kts | 75° |
| 2026-05-06 02:22 | 39.94959 | -104.25702 | 11960 ft | 340 kts | 75° |
| 2026-05-06 02:22 | 39.95608 | -104.22734 | 11954 ft | 340 kts | 75° |
| 2026-05-06 02:23 | 39.96255 | -104.19770 | 11959 ft | 340 kts | 75° |
| 2026-05-06 02:23 | 39.96898 | -104.16812 | 11958 ft | 339 kts | 75° |
| 2026-05-06 02:23 | 39.97482 | -104.13825 | 11993 ft | 343 kts | 80° |
| 2026-05-06 02:23 | 39.97845 | -104.10706 | 12693 ft | 350 kts | 83° |
| 2026-05-06 02:24 | 39.98144 | -104.07571 | 13538 ft | 357 kts | 84° |
| 2026-05-06 02:24 | 39.98454 | -104.04325 | 14283 ft | 365 kts | 83° |
| 2026-05-06 02:24 | 39.98791 | -104.01013 | 15052 ft | 371 kts | 82° |
| 2026-05-06 02:24 | 39.99149 | -103.97656 | 15861 ft | 377 kts | 82° |
| 2026-05-06 02:25 | 39.99519 | -103.94239 | 16665 ft | 383 kts | 82° |
| 2026-05-06 02:25 | 39.99925 | -103.90768 | 17448 ft | 390 kts | 78° |
| 2026-05-06 02:25 | 40.00464 | -103.87272 | 18220 ft | 396 kts | 76° |
| 2026-05-06 02:25 | 40.01059 | -103.83733 | 18910 ft | 402 kts | 76° |
| 2026-05-06 02:26 | 40.01652 | -103.80148 | 19657 ft | 406 kts | 77° |
| 2026-05-06 02:26 | 40.02233 | -103.76525 | 20408 ft | 410 kts | 77° |
| 2026-05-06 02:26 | 40.02826 | -103.72861 | 21126 ft | 415 kts | 77° |
| 2026-05-06 02:26 | 40.03435 | -103.69152 | 21822 ft | 420 kts | 77° |
| 2026-05-06 02:27 | 40.04052 | -103.65409 | 22520 ft | 424 kts | 77° |
| 2026-05-06 02:27 | 40.04668 | -103.61667 | 23205 ft | 429 kts | 77° |